createdAt,value
2023-03-24T00:03:25.480Z,1009.82
2023-03-24T00:08:34.452Z,1009.80
2023-03-24T00:13:43.506Z,1009.72
2023-03-24T00:18:51.329Z,1009.75
2023-03-24T00:24:03.982Z,1009.78
2023-03-24T00:29:11.670Z,1009.79
2023-03-24T00:34:19.501Z,1009.82
2023-03-24T00:39:27.232Z,1009.79
2023-03-24T00:44:34.919Z,1009.88
2023-03-24T00:49:51.761Z,1010.02
2023-03-24T00:54:59.282Z,1010.29
2023-03-24T01:00:07.011Z,1010.29
2023-03-24T01:06:08.642Z,1010.33
2023-03-24T01:10:36.145Z,1010.28
2023-03-24T01:15:43.829Z,1010.11
2023-03-24T01:21:03.056Z,1009.98
2023-03-24T01:26:10.495Z,1009.90
2023-03-24T01:31:29.030Z,1009.82
2023-03-24T01:36:36.452Z,1009.65
2023-03-24T01:41:50.301Z,1009.68
2023-03-24T01:46:57.658Z,1009.65
2023-03-24T01:52:05.065Z,1009.62
2023-03-24T01:57:12.614Z,1009.65
2023-03-24T02:02:19.985Z,1009.62
2023-03-24T02:07:27.572Z,1009.63
2023-03-24T02:12:35.303Z,1009.59
2023-03-24T02:17:42.647Z,1009.52
2023-03-24T02:22:50.233Z,1009.44
2023-03-24T02:27:57.729Z,1009.38
2023-03-24T02:33:05.129Z,1009.22
2023-03-24T02:38:12.451Z,1009.15
2023-03-24T02:43:27.410Z,1009.14
2023-03-24T02:48:32.703Z,1009.12
2023-03-24T02:53:40.189Z,1009.06
2023-03-24T02:58:47.727Z,1009.11
2023-03-24T03:03:59.835Z,1009.05
2023-03-24T03:09:44.247Z,1009.03
2023-03-24T03:14:51.599Z,1009.01
2023-03-24T03:19:59.184Z,1009.07
2023-03-24T03:25:06.486Z,1009.15
2023-03-24T03:30:14.137Z,1009.14
2023-03-24T03:35:21.628Z,1009.24
2023-03-24T03:40:29.148Z,1009.23
2023-03-24T03:45:36.680Z,1009.25
2023-03-24T03:50:44.369Z,1009.20
2023-03-24T03:55:51.773Z,1008.79
2023-03-24T04:01:03.189Z,1008.39
2023-03-24T04:06:15.348Z,1008.30
2023-03-24T04:11:22.708Z,1008.41
2023-03-24T04:16:30.344Z,1008.44
2023-03-24T04:21:37.843Z,1008.51
2023-03-24T04:26:45.374Z,1008.31
2023-03-24T04:31:52.946Z,1008.39
2023-03-24T04:37:00.140Z,1008.29
2023-03-24T04:42:07.575Z,1008.16
2023-03-24T04:47:15.132Z,1008.10
2023-03-24T04:52:22.504Z,1008.06
2023-03-24T04:57:29.743Z,1008.07
2023-03-24T05:02:37.127Z,1008.06
2023-03-24T05:07:44.250Z,1008.15
2023-03-24T05:12:51.454Z,1008.25
2023-03-24T05:17:58.812Z,1008.24
2023-03-24T05:23:06.057Z,1008.19
2023-03-24T05:28:13.243Z,1008.25
2023-03-24T05:33:20.579Z,1008.29
2023-03-24T05:38:27.723Z,1008.40
2023-03-24T05:43:34.909Z,1008.67
2023-03-24T05:48:42.100Z,1008.75
2023-03-24T05:53:49.243Z,1008.95
2023-03-24T05:58:56.450Z,1009.11
2023-03-24T06:04:03.748Z,1009.16
2023-03-24T06:09:10.813Z,1009.45
2023-03-24T06:14:18.095Z,1009.60
2023-03-24T06:19:25.389Z,1009.56
2023-03-24T06:24:32.657Z,1009.67
2023-03-24T06:29:39.867Z,1009.59
2023-03-24T06:34:47.061Z,1009.56
2023-03-24T06:39:54.226Z,1009.46
2023-03-24T06:45:01.435Z,1009.72
2023-03-24T06:50:08.705Z,1009.61
2023-03-24T06:55:15.871Z,1009.60
2023-03-24T07:00:23.151Z,1009.68
2023-03-24T07:05:30.347Z,1009.59
2023-03-24T07:10:37.514Z,1009.64
2023-03-24T07:15:44.682Z,1009.77
2023-03-24T07:20:51.917Z,1009.83
2023-03-24T07:25:59.120Z,1009.93
2023-03-24T07:31:06.374Z,1009.89
2023-03-24T07:36:13.701Z,1010.02
2023-03-24T07:41:20.725Z,1010.08
2023-03-24T07:46:27.944Z,1010.19
2023-03-24T07:51:38.482Z,1010.19
2023-03-24T07:56:42.319Z,1010.18
2023-03-24T08:01:51.497Z,1010.32
2023-03-24T08:06:56.845Z,1010.38
2023-03-24T08:12:13.519Z,1010.40
2023-03-24T08:17:11.130Z,1010.39
2023-03-24T08:22:18.450Z,1010.45
2023-03-24T08:27:25.582Z,1010.46
2023-03-24T08:32:32.796Z,1010.50
2023-03-24T08:37:40.004Z,1010.51
2023-03-24T08:42:47.165Z,1010.76
2023-03-24T08:47:54.445Z,1011.05
2023-03-24T08:53:01.644Z,1011.24
2023-03-24T08:58:08.780Z,1011.31
2023-03-24T09:03:15.981Z,1011.41
2023-03-24T09:08:23.209Z,1011.38
2023-03-24T09:13:30.358Z,1011.48
2023-03-24T09:18:37.530Z,1011.76
2023-03-24T09:23:44.918Z,1011.95
2023-03-24T09:28:52.007Z,1011.93
2023-03-24T09:33:59.400Z,1011.86
2023-03-24T09:39:06.609Z,1011.73
2023-03-24T09:44:13.847Z,1011.39
2023-03-24T09:49:21.247Z,1011.22
2023-03-24T09:54:28.591Z,1010.96
2023-03-24T09:59:35.852Z,1011.07
2023-03-24T10:04:43.188Z,1011.08
2023-03-24T10:09:50.476Z,1010.99
2023-03-24T10:14:57.798Z,1011.05
2023-03-24T10:20:05.094Z,1010.96
2023-03-24T10:25:12.457Z,1010.99
2023-03-24T10:30:19.592Z,1010.95
2023-03-24T10:35:26.796Z,1010.98
2023-03-24T10:40:34.044Z,1010.94
2023-03-24T10:45:41.268Z,1010.95
2023-03-24T10:50:48.401Z,1010.99
2023-03-24T10:55:55.662Z,1011.06
2023-03-24T11:01:03.024Z,1011.16
2023-03-24T11:06:10.048Z,1011.25
2023-03-24T11:11:17.219Z,1011.32
2023-03-24T11:16:24.453Z,1011.41
2023-03-24T11:21:31.616Z,1011.34
2023-03-24T11:26:38.807Z,1011.32
2023-03-24T11:31:45.942Z,1011.33
2023-03-24T11:36:53.317Z,1011.18
2023-03-24T11:42:00.494Z,1011.09
2023-03-24T11:47:07.746Z,1010.93
2023-03-24T11:52:14.969Z,1011.01
2023-03-24T11:57:22.192Z,1011.14
2023-03-24T12:02:29.383Z,1011.05
2023-03-24T12:07:36.590Z,1011.19
2023-03-24T12:12:43.843Z,1011.28
2023-03-24T12:17:51.017Z,1011.18
2023-03-24T12:22:58.199Z,1011.11
2023-03-24T12:28:05.401Z,1011.02
2023-03-24T12:33:12.656Z,1011.01
2023-03-24T12:38:19.873Z,1011.17
2023-03-24T12:43:27.071Z,1011.00
2023-03-24T12:48:34.210Z,1010.86
2023-03-24T12:53:41.389Z,1010.86
2023-03-24T12:58:48.612Z,1010.86
2023-03-24T13:03:55.859Z,1010.80
2023-03-24T13:09:03.047Z,1010.74
2023-03-24T13:14:10.351Z,1010.97
2023-03-24T13:19:17.548Z,1011.03
2023-03-24T13:24:24.801Z,1010.98
2023-03-24T13:29:41.787Z,1011.22
2023-03-24T13:34:39.270Z,1011.21
2023-03-24T13:39:46.497Z,1011.17
2023-03-24T13:44:53.732Z,1011.19
2023-03-24T13:50:00.962Z,1011.06
2023-03-24T13:55:08.126Z,1011.14
2023-03-24T14:00:15.327Z,1011.08
2023-03-24T14:05:22.520Z,1011.17
2023-03-24T14:10:29.683Z,1011.13
2023-03-24T14:15:36.971Z,1010.99
2023-03-24T14:20:44.141Z,1011.22
2023-03-24T14:25:52.397Z,1011.25
2023-03-24T14:30:59.653Z,1011.31
2023-03-24T14:36:07.038Z,1011.27
2023-03-24T14:41:14.057Z,1011.13
2023-03-24T14:46:21.373Z,1011.30
2023-03-24T14:51:28.449Z,1011.34
2023-03-24T14:56:35.691Z,1011.34
2023-03-24T15:01:42.883Z,1011.45
2023-03-24T15:06:49.993Z,1011.58
2023-03-24T15:11:57.262Z,1011.53
2023-03-24T15:17:04.481Z,1011.75
2023-03-24T15:22:11.664Z,1011.58
2023-03-24T15:27:18.867Z,1011.53
2023-03-24T15:32:26.080Z,1011.60
2023-03-24T15:37:33.263Z,1011.66
2023-03-24T15:42:40.508Z,1011.65
2023-03-24T15:47:47.763Z,1011.50
2023-03-24T15:52:54.865Z,1011.43
2023-03-24T15:58:02.151Z,1011.33
2023-03-24T16:03:09.585Z,1011.27
2023-03-24T16:08:16.644Z,1011.38
2023-03-24T16:13:23.987Z,1011.47
2023-03-24T16:18:31.210Z,1011.54
2023-03-24T16:23:38.412Z,1011.50
2023-03-24T16:28:45.565Z,1011.63
2023-03-24T16:33:52.774Z,1011.60
2023-03-24T16:38:59.936Z,1011.48
2023-03-24T16:44:07.084Z,1011.49
2023-03-24T16:49:14.349Z,1011.45
2023-03-24T16:54:21.551Z,1011.33
2023-03-24T16:59:28.990Z,1011.30
2023-03-24T17:04:36.584Z,1011.33
2023-03-24T17:09:43.569Z,1011.44
2023-03-24T17:14:50.824Z,1011.54
2023-03-24T17:19:58.340Z,1011.52
2023-03-24T17:25:06.553Z,1011.48
2023-03-24T17:30:13.693Z,1011.52
2023-03-24T17:35:20.957Z,1011.60
2023-03-24T17:40:28.158Z,1011.63
2023-03-24T17:45:35.414Z,1011.69
2023-03-24T17:50:42.692Z,1011.65
2023-03-24T17:55:50.190Z,1011.54
2023-03-24T18:00:57.868Z,1011.57
2023-03-24T18:06:05.227Z,1011.73
2023-03-24T18:11:12.768Z,1011.80
2023-03-24T18:16:21.826Z,1011.91
2023-03-24T18:21:27.294Z,1011.94
2023-03-24T18:26:34.842Z,1012.02
2023-03-24T18:31:44.123Z,1012.13
2023-03-24T18:36:51.786Z,1012.21
2023-03-24T18:41:59.422Z,1012.36
2023-03-24T18:47:07.046Z,1012.64
2023-03-24T18:52:14.512Z,1012.63
2023-03-24T18:57:22.065Z,1012.72
2023-03-24T19:02:29.735Z,1012.73
2023-03-24T19:07:37.417Z,1012.73
2023-03-24T19:12:44.938Z,1012.49
2023-03-24T19:17:52.653Z,1012.44
2023-03-24T19:23:00.273Z,1012.59
2023-03-24T19:28:07.861Z,1012.39
2023-03-24T19:33:15.287Z,1012.01
2023-03-24T19:38:22.920Z,1012.00
2023-03-24T19:43:30.492Z,1012.40
2023-03-24T19:48:38.021Z,1012.28
2023-03-24T19:53:45.746Z,1012.28
2023-03-24T19:58:53.644Z,1012.36
2023-03-24T20:04:01.324Z,1012.54
2023-03-24T20:09:09.003Z,1012.59
2023-03-24T20:14:16.610Z,1012.68
2023-03-24T20:19:24.215Z,1012.46
2023-03-24T20:24:31.947Z,1012.86
2023-03-24T20:29:39.697Z,1012.75
2023-03-24T20:34:47.356Z,1012.80
2023-03-24T20:39:54.812Z,1012.75
2023-03-24T20:45:02.021Z,1012.93
2023-03-24T20:50:09.235Z,1012.80
2023-03-24T20:55:16.835Z,1012.88
2023-03-24T21:00:24.404Z,1012.85
2023-03-24T21:05:32.118Z,1012.79
2023-03-24T21:10:42.734Z,1012.84
2023-03-24T21:15:50.332Z,1012.84
2023-03-24T21:20:57.443Z,1012.80
2023-03-24T21:26:04.971Z,1012.86
2023-03-24T21:31:12.400Z,1012.87
2023-03-24T21:36:19.621Z,1012.91
2023-03-24T21:41:26.859Z,1012.87
2023-03-24T21:46:33.988Z,1013.08
2023-03-24T21:51:41.194Z,1013.20
2023-03-24T21:56:48.625Z,1013.28
2023-03-24T22:01:55.940Z,1013.26
2023-03-24T22:07:03.160Z,1013.14
2023-03-24T22:12:10.468Z,1013.13
2023-03-24T22:17:17.820Z,1013.24
2023-03-24T22:22:25.004Z,1013.18
2023-03-24T22:27:32.338Z,1013.18
2023-03-24T22:32:39.692Z,1013.03
2023-03-24T22:37:46.850Z,1013.27
2023-03-24T22:42:54.073Z,1013.25
2023-03-24T22:48:01.362Z,1013.22
2023-03-24T22:53:08.559Z,1013.14
2023-03-24T22:58:15.900Z,1013.10
2023-03-24T23:03:23.220Z,1013.05
2023-03-24T23:08:30.369Z,1013.15
2023-03-24T23:13:37.631Z,1013.13
2023-03-24T23:18:44.794Z,1013.17
2023-03-24T23:23:52.015Z,1013.09
2023-03-24T23:28:59.234Z,1013.13
2023-03-24T23:34:06.505Z,1013.16
2023-03-24T23:39:13.659Z,1013.07
2023-03-24T23:44:20.896Z,1013.03
2023-03-24T23:49:28.161Z,1012.91
2023-03-24T23:54:35.432Z,1012.92
2023-03-24T23:59:42.736Z,1012.93
